TimeEST,TemperatureF,Dew PointF,Humidity,Sea Level PressureIn,VisibilityMPH,Wind Direction,Wind SpeedMPH,Gust SpeedMPH,PrecipitationIn,Events,Conditions,WindDirDegrees,DateUTC
12:15 AM,35.4,29.3,78,29.84,10.0,WSW,13.8,20.7,N/A,,Overcast,240,2013-01-06 05:15:00
12:35 AM,35.1,29.1,79,29.83,10.0,WSW,15.0,20.7,N/A,,Overcast,250,2013-01-06 05:35:00
12:54 AM,34.9,28.6,78,29.83,10.0,WSW,13.8,-,N/A,,Overcast,250,2013-01-06 05:54:00
1:15 AM,34.3,28.4,79,29.82,10.0,West,15.0,24.2,N/A,,Overcast,260,2013-01-06 06:15:00
1:34 AM,34.2,28.4,79,29.82,10.0,WSW,16.1,20.7,N/A,,Overcast,250,2013-01-06 06:34:00
1:55 AM,34.2,27.3,76,29.81,10.0,WSW,11.5,20.7,N/A,,Overcast,240,2013-01-06 06:55:00
2:14 AM,34.2,26.8,74,29.81,10.0,WSW,11.5,19.6,N/A,,Overcast,240,2013-01-06 07:14:00
2:34 AM,34.0,26.6,74,29.81,10.0,WSW,11.5,20.7,N/A,,Overcast,250,2013-01-06 07:34:00
3:15 AM,33.8,27.0,76,29.81,10.0,WSW,8.1,-,N/A,,Overcast,240,2013-01-06 08:15:00
3:35 AM,33.8,27.9,79,29.81,10.0,West,12.7,18.4,N/A,,Overcast,260,2013-01-06 08:35:00
3:55 AM,33.8,27.5,78,29.81,10.0,West,11.5,-,N/A,,Overcast,270,2013-01-06 08:55:00
4:14 AM,33.4,27.0,77,29.80,10.0,WSW,11.5,-,N/A,,Overcast,250,2013-01-06 09:14:00
4:35 AM,33.3,26.8,77,29.80,10.0,West,10.4,-,N/A,,Overcast,260,2013-01-06 09:35:00
4:54 AM,33.3,26.4,76,29.80,10.0,West,12.7,-,N/A,,Overcast,270,2013-01-06 09:54:00
5:15 AM,33.1,25.7,74,29.80,10.0,West,10.4,-,N/A,,Overcast,280,2013-01-06 10:15:00
5:34 AM,33.1,25.5,74,29.79,10.0,West,6.9,10.4,N/A,,Overcast,260,2013-01-06 10:34:00
5:55 AM,32.9,25.7,75,29.80,10.0,West,9.2,-,N/A,,Overcast,260,2013-01-06 10:55:00
6:35 AM,32.9,25.5,74,29.81,10.0,WSW,8.1,-,N/A,,Overcast,240,2013-01-06 11:35:00
6:54 AM,32.5,26.1,77,29.81,10.0,West,13.8,-,N/A,,Overcast,260,2013-01-06 11:54:00
7:15 AM,32.0,25.2,76,29.82,10.0,West,12.7,-,N/A,,Overcast,260,2013-01-06 12:15:00
7:34 AM,32.0,24.8,75,29.83,10.0,WSW,8.1,-,N/A,,Overcast,250,2013-01-06 12:34:00
7:55 AM,32.0,25.0,75,29.83,10.0,West,8.1,-,N/A,,Overcast,260,2013-01-06 12:55:00
8:14 AM,32.0,25.2,76,29.84,10.0,West,8.1,-,N/A,,Overcast,270,2013-01-06 13:14:00
8:35 AM,32.0,26.4,80,29.85,10.0,NNW,8.1,-,N/A,,Overcast,330,2013-01-06 13:35:00
8:55 AM,32.0,27.9,85,29.86,7.0,NNW,11.5,-,N/A,,Overcast,340,2013-01-06 13:55:00
9:35 AM,31.1,27.3,86,29.88,5.0,North,9.2,-,N/A,,Overcast,360,2013-01-06 14:35:00
9:55 AM,31.1,27.1,85,29.89,5.0,North,8.1,-,N/A,,Overcast,360,2013-01-06 14:55:00
10:14 AM,30.9,27.1,86,29.90,3.0,North,5.8,-,N/A,Snow,Light Snow,360,2013-01-06 15:14:00
10:35 AM,30.9,26.6,84,29.91,5.0,North,6.9,-,N/A,,Haze,360,2013-01-06 15:35:00
10:55 AM,31.5,26.6,82,29.92,5.0,North,6.9,-,N/A,,Overcast,10,2013-01-06 15:55:00
11:14 AM,31.6,26.4,81,29.92,7.0,North,6.9,-,N/A,,Overcast,360,2013-01-06 16:14:00
11:35 AM,31.5,25.7,79,29.93,10.0,North,6.9,-,N/A,,Overcast,360,2013-01-06 16:35:00
11:55 AM,32.0,25.3,76,29.94,10.0,North,8.1,-,N/A,,Overcast,360,2013-01-06 16:55:00
12:15 PM,32.2,25.2,75,29.94,10.0,North,9.2,-,N/A,,Overcast,350,2013-01-06 17:15:00
12:35 PM,32.0,25.9,78,29.94,10.0,North,11.5,17.3,N/A,,Overcast,350,2013-01-06 17:35:00
12:55 PM,32.0,26.1,79,29.95,10.0,North,11.5,16.1,N/A,,Overcast,360,2013-01-06 17:55:00
1:15 PM,30.9,26.2,83,29.96,10.0,North,16.1,-,N/A,,Overcast,10,2013-01-06 18:15:00
1:35 PM,30.6,26.8,86,29.97,10.0,North,12.7,-,N/A,,Overcast,350,2013-01-06 18:35:00
1:54 PM,30.2,25.5,83,29.98,10.0,North,10.4,18.4,N/A,,Overcast,360,2013-01-06 18:54:00
2:15 PM,30.2,25.7,83,30.00,10.0,North,12.7,19.6,N/A,,Overcast,360,2013-01-06 19:15:00
2:35 PM,30.0,25.5,83,30.01,10.0,North,12.7,18.4,N/A,,Overcast,10,2013-01-06 19:35:00
2:55 PM,30.2,25.5,83,30.02,10.0,North,12.7,-,N/A,,Overcast,10,2013-01-06 19:55:00
3:15 PM,30.2,25.5,83,30.04,10.0,North,10.4,-,N/A,,Overcast,10,2013-01-06 20:15:00
3:34 PM,30.2,25.3,82,30.05,10.0,North,9.2,-,N/A,,Overcast,350,2013-01-06 20:34:00
3:55 PM,30.2,24.8,80,30.07,10.0,North,10.4,-,N/A,,Overcast,350,2013-01-06 20:55:00
4:15 PM,30.2,24.4,79,30.09,10.0,North,9.2,-,N/A,,Overcast,360,2013-01-06 21:15:00
4:34 PM,30.4,24.6,79,30.09,10.0,North,8.1,-,N/A,,Overcast,360,2013-01-06 21:34:00
4:55 PM,30.9,24.8,78,30.11,10.0,North,10.4,-,N/A,,Overcast,360,2013-01-06 21:55:00
5:15 PM,30.9,24.6,77,30.12,10.0,North,10.4,-,N/A,,Overcast,350,2013-01-06 22:15:00
5:34 PM,31.1,25.3,79,30.13,10.0,North,13.8,-,N/A,,Overcast,350,2013-01-06 22:34:00
5:55 PM,30.9,24.3,76,30.14,10.0,North,9.2,-,N/A,,Overcast,350,2013-01-06 22:55:00
6:15 PM,30.6,23.4,75,30.14,10.0,NNW,11.5,-,N/A,,Overcast,340,2013-01-06 23:15:00
6:35 PM,30.2,22.8,74,30.15,10.0,North,9.2,-,N/A,,Overcast,350,2013-01-06 23:35:00
6:55 PM,30.2,22.1,72,30.17,10.0,North,9.2,-,N/A,,Overcast,350,2013-01-06 23:55:00
7:15 PM,30.0,22.6,74,30.18,10.0,NW,11.5,17.3,N/A,,Overcast,320,2013-01-07 00:15:00
7:34 PM,29.5,22.5,75,30.19,10.0,NW,9.2,-,N/A,,Overcast,320,2013-01-07 00:34:00
7:55 PM,29.3,22.5,76,30.19,10.0,North,6.9,-,N/A,,Overcast,360,2013-01-07 00:55:00
8:14 PM,29.3,22.3,75,30.19,10.0,WNW,8.1,-,N/A,,Overcast,300,2013-01-07 01:14:00
8:35 PM,29.1,22.1,75,30.20,10.0,NNW,6.9,-,N/A,,Overcast,330,2013-01-07 01:35:00
8:54 PM,29.1,22.1,75,30.21,10.0,North,4.6,-,N/A,,Overcast,350,2013-01-07 01:54:00
9:15 PM,29.1,21.9,74,30.21,10.0,NW,5.8,-,N/A,,Overcast,310,2013-01-07 02:15:00
9:34 PM,28.9,21.6,74,30.22,10.0,NNW,4.6,-,N/A,,Overcast,330,2013-01-07 02:34:00
9:55 PM,28.8,21.6,74,30.21,10.0,North,3.5,-,N/A,,Overcast,10,2013-01-07 02:55:00
10:35 PM,28.4,21.6,76,30.21,10.0,Calm,Calm,-,N/A,,Overcast,0,2013-01-07 03:35:00
10:54 PM,28.4,21.2,74,30.22,10.0,WSW,4.6,-,N/A,,Overcast,240,2013-01-07 03:54:00
11:15 PM,28.4,21.0,74,30.23,10.0,SW,5.8,-,N/A,,Overcast,230,2013-01-07 04:15:00
11:35 PM,28.4,20.3,72,30.24,10.0,SW,3.5,-,N/A,,Overcast,220,2013-01-07 04:35:00
11:54 PM,28.8,19.9,70,30.25,10.0,SW,4.6,-,N/A,,Overcast,230,2013-01-07 04:54:00